sensor_id;sensor_type;location;lat;lon;timestamp;P1;durP1;ratioP1;P2;durP2;ratioP2
29848;SDS011;16728;50.832;5.590;2022-10-31T00:00:21;21.17;;;13.20;;
29848;SDS011;16728;50.832;5.590;2022-10-31T00:03:23;21.90;;;13.40;;
29848;SDS011;16728;50.832;5.590;2022-10-31T00:09:29;18.83;;;12.50;;
29848;SDS011;16728;50.832;5.590;2022-10-31T00:12:31;20.63;;;12.98;;
29848;SDS011;16728;50.832;5.590;2022-10-31T00:15:36;24.58;;;13.30;;
29848;SDS011;16728;50.832;5.590;2022-10-31T00:18:39;20.98;;;12.88;;
29848;SDS011;16728;50.832;5.590;2022-10-31T00:21:41;26.85;;;13.40;;
29848;SDS011;16728;50.832;5.590;2022-10-31T00:24:43;19.40;;;12.45;;
29848;SDS011;16728;50.832;5.590;2022-10-31T00:27:45;20.33;;;13.10;;
29848;SDS011;16728;50.832;5.590;2022-10-31T00:30:46;27.40;;;13.23;;
29848;SDS011;16728;50.832;5.590;2022-10-31T00:33:48;18.77;;;12.45;;
29848;SDS011;16728;50.832;5.590;2022-10-31T00:36:50;19.70;;;12.25;;
29848;SDS011;16728;50.832;5.590;2022-10-31T00:39:52;18.17;;;12.32;;
29848;SDS011;16728;50.832;5.590;2022-10-31T00:42:54;17.80;;;12.15;;
29848;SDS011;16728;50.832;5.590;2022-10-31T00:45:56;22.48;;;12.57;;
29848;SDS011;16728;50.832;5.590;2022-10-31T00:48:58;21.42;;;12.55;;
29848;SDS011;16728;50.832;5.590;2022-10-31T00:51:59;23.50;;;13.30;;
29848;SDS011;16728;50.832;5.590;2022-10-31T00:55:01;26.25;;;13.18;;
29848;SDS011;16728;50.832;5.590;2022-10-31T00:58:03;27.08;;;13.60;;
29848;SDS011;16728;50.832;5.590;2022-10-31T01:01:05;24.05;;;13.75;;
29848;SDS011;16728;50.832;5.590;2022-10-31T01:04:07;20.98;;;13.35;;
29848;SDS011;16728;50.832;5.590;2022-10-31T01:07:09;18.98;;;13.52;;
29848;SDS011;16728;50.832;5.590;2022-10-31T01:10:13;23.58;;;13.90;;
29848;SDS011;16728;50.832;5.590;2022-10-31T01:13:15;24.30;;;14.45;;
29848;SDS011;16728;50.832;5.590;2022-10-31T01:16:17;21.05;;;13.10;;
29848;SDS011;16728;50.832;5.590;2022-10-31T01:19:21;22.00;;;13.85;;
29848;SDS011;16728;50.832;5.590;2022-10-31T01:22:23;24.52;;;13.73;;
29848;SDS011;16728;50.832;5.590;2022-10-31T01:25:25;20.00;;;13.00;;
29848;SDS011;16728;50.832;5.590;2022-10-31T01:28:27;21.10;;;13.55;;
29848;SDS011;16728;50.832;5.590;2022-10-31T01:31:30;25.42;;;13.55;;
29848;SDS011;16728;50.832;5.590;2022-10-31T01:34:33;22.45;;;12.93;;
29848;SDS011;16728;50.832;5.590;2022-10-31T01:37:35;22.65;;;13.43;;
29848;SDS011;16728;50.832;5.590;2022-10-31T01:40:37;23.33;;;13.57;;
29848;SDS011;16728;50.832;5.590;2022-10-31T01:46:59;21.98;;;12.18;;
29848;SDS011;16728;50.832;5.590;2022-10-31T01:50:05;18.17;;;12.57;;
29848;SDS011;16728;50.832;5.590;2022-10-31T01:53:14;19.65;;;12.45;;
29848;SDS011;16728;50.832;5.590;2022-10-31T01:56:19;20.25;;;12.75;;
29848;SDS011;16728;50.832;5.590;2022-10-31T01:59:21;20.27;;;12.60;;
29848;SDS011;16728;50.832;5.590;2022-10-31T02:02:27;18.75;;;12.20;;
29848;SDS011;16728;50.832;5.590;2022-10-31T02:05:33;19.30;;;11.68;;
29848;SDS011;16728;50.832;5.590;2022-10-31T02:08:35;20.77;;;12.45;;
29848;SDS011;16728;50.832;5.590;2022-10-31T02:11:40;14.88;;;11.60;;
29848;SDS011;16728;50.832;5.590;2022-10-31T02:14:43;23.90;;;12.18;;
29848;SDS011;16728;50.832;5.590;2022-10-31T02:17:45;22.10;;;12.00;;
29848;SDS011;16728;50.832;5.590;2022-10-31T02:27:41;20.98;;;13.27;;
29848;SDS011;16728;50.832;5.590;2022-10-31T02:33:55;24.23;;;13.50;;
29848;SDS011;16728;50.832;5.590;2022-10-31T02:37:12;20.67;;;12.60;;
29848;SDS011;16728;50.832;5.590;2022-10-31T02:43:30;18.95;;;12.13;;
29848;SDS011;16728;50.832;5.590;2022-10-31T02:56:27;21.52;;;12.00;;
29848;SDS011;16728;50.832;5.590;2022-10-31T02:59:28;19.60;;;12.75;;
29848;SDS011;16728;50.832;5.590;2022-10-31T03:15:45;20.20;;;12.93;;
29848;SDS011;16728;50.832;5.590;2022-10-31T03:22:04;23.08;;;13.63;;
29848;SDS011;16728;50.832;5.590;2022-10-31T03:25:12;28.58;;;13.90;;
29848;SDS011;16728;50.832;5.590;2022-10-31T03:28:15;22.85;;;13.07;;
29848;SDS011;16728;50.832;5.590;2022-10-31T03:31:26;20.33;;;11.68;;
29848;SDS011;16728;50.832;5.590;2022-10-31T03:34:31;17.55;;;10.40;;
29848;SDS011;16728;50.832;5.590;2022-10-31T03:37:35;17.67;;;10.98;;
29848;SDS011;16728;50.832;5.590;2022-10-31T03:40:38;17.48;;;10.95;;
29848;SDS011;16728;50.832;5.590;2022-10-31T03:43:48;19.00;;;11.13;;
29848;SDS011;16728;50.832;5.590;2022-10-31T03:46:56;20.05;;;11.30;;
29848;SDS011;16728;50.832;5.590;2022-10-31T03:49:58;16.45;;;11.07;;
29848;SDS011;16728;50.832;5.590;2022-10-31T03:53:04;14.57;;;10.27;;
29848;SDS011;16728;50.832;5.590;2022-10-31T03:56:35;23.60;;;11.40;;
29848;SDS011;16728;50.832;5.590;2022-10-31T03:59:42;17.92;;;10.98;;
29848;SDS011;16728;50.832;5.590;2022-10-31T04:03:07;14.50;;;9.82;;
29848;SDS011;16728;50.832;5.590;2022-10-31T04:06:14;16.13;;;10.00;;
29848;SDS011;16728;50.832;5.590;2022-10-31T04:09:18;18.10;;;10.05;;
29848;SDS011;16728;50.832;5.590;2022-10-31T04:12:21;13.60;;;10.15;;
29848;SDS011;16728;50.832;5.590;2022-10-31T04:15:26;15.98;;;9.63;;
29848;SDS011;16728;50.832;5.590;2022-10-31T04:18:29;19.58;;;10.40;;
29848;SDS011;16728;50.832;5.590;2022-10-31T04:21:31;16.33;;;9.50;;
29848;SDS011;16728;50.832;5.590;2022-10-31T04:24:33;25.38;;;9.77;;
29848;SDS011;16728;50.832;5.590;2022-10-31T04:27:35;23.08;;;10.55;;
29848;SDS011;16728;50.832;5.590;2022-10-31T04:30:36;22.40;;;9.90;;
29848;SDS011;16728;50.832;5.590;2022-10-31T04:33:38;25.52;;;10.25;;
29848;SDS011;16728;50.832;5.590;2022-10-31T04:36:40;29.25;;;10.43;;
29848;SDS011;16728;50.832;5.590;2022-10-31T04:39:42;23.95;;;10.25;;
29848;SDS011;16728;50.832;5.590;2022-10-31T04:42:44;24.70;;;10.45;;
29848;SDS011;16728;50.832;5.590;2022-10-31T04:45:45;19.70;;;9.88;;
29848;SDS011;16728;50.832;5.590;2022-10-31T04:48:47;21.33;;;10.50;;
29848;SDS011;16728;50.832;5.590;2022-10-31T04:51:49;21.20;;;9.75;;
29848;SDS011;16728;50.832;5.590;2022-10-31T04:54:52;25.92;;;9.57;;
29848;SDS011;16728;50.832;5.590;2022-10-31T04:57:53;24.85;;;10.30;;
29848;SDS011;16728;50.832;5.590;2022-10-31T05:00:55;20.25;;;9.48;;
29848;SDS011;16728;50.832;5.590;2022-10-31T05:03:58;23.13;;;9.30;;
29848;SDS011;16728;50.832;5.590;2022-10-31T05:07:00;22.92;;;9.63;;
29848;SDS011;16728;50.832;5.590;2022-10-31T05:10:02;20.23;;;9.93;;
29848;SDS011;16728;50.832;5.590;2022-10-31T05:13:04;15.65;;;9.45;;
29848;SDS011;16728;50.832;5.590;2022-10-31T05:16:06;19.95;;;9.07;;
29848;SDS011;16728;50.832;5.590;2022-10-31T05:19:08;18.40;;;9.57;;
29848;SDS011;16728;50.832;5.590;2022-10-31T05:22:10;15.50;;;9.13;;
29848;SDS011;16728;50.832;5.590;2022-10-31T05:25:12;21.00;;;10.35;;
29848;SDS011;16728;50.832;5.590;2022-10-31T05:28:14;16.60;;;9.48;;
29848;SDS011;16728;50.832;5.590;2022-10-31T05:31:15;15.90;;;10.02;;
29848;SDS011;16728;50.832;5.590;2022-10-31T05:34:17;21.20;;;9.77;;
29848;SDS011;16728;50.832;5.590;2022-10-31T05:37:19;23.13;;;9.98;;
29848;SDS011;16728;50.832;5.590;2022-10-31T05:40:21;19.88;;;8.98;;
29848;SDS011;16728;50.832;5.590;2022-10-31T05:43:23;17.63;;;8.90;;
29848;SDS011;16728;50.832;5.590;2022-10-31T05:46:25;22.73;;;9.70;;
29848;SDS011;16728;50.832;5.590;2022-10-31T05:49:26;21.55;;;9.18;;
29848;SDS011;16728;50.832;5.590;2022-10-31T05:52:28;18.15;;;10.43;;
29848;SDS011;16728;50.832;5.590;2022-10-31T05:55:31;22.10;;;10.60;;
29848;SDS011;16728;50.832;5.590;2022-10-31T05:58:33;21.88;;;10.70;;
29848;SDS011;16728;50.832;5.590;2022-10-31T06:01:35;19.67;;;9.80;;
29848;SDS011;16728;50.832;5.590;2022-10-31T06:04:37;17.48;;;10.93;;
29848;SDS011;16728;50.832;5.590;2022-10-31T06:07:38;21.50;;;9.85;;
29848;SDS011;16728;50.832;5.590;2022-10-31T06:10:41;17.02;;;9.95;;
29848;SDS011;16728;50.832;5.590;2022-10-31T06:13:43;19.77;;;10.25;;
29848;SDS011;16728;50.832;5.590;2022-10-31T06:16:45;18.45;;;9.77;;
29848;SDS011;16728;50.832;5.590;2022-10-31T06:19:47;17.33;;;9.48;;
29848;SDS011;16728;50.832;5.590;2022-10-31T06:22:50;14.90;;;8.57;;
29848;SDS011;16728;50.832;5.590;2022-10-31T06:25:52;15.90;;;9.40;;
29848;SDS011;16728;50.832;5.590;2022-10-31T06:28:53;19.08;;;9.65;;
29848;SDS011;16728;50.832;5.590;2022-10-31T06:32:00;24.58;;;10.20;;
29848;SDS011;16728;50.832;5.590;2022-10-31T06:35:01;19.20;;;9.50;;
29848;SDS011;16728;50.832;5.590;2022-10-31T06:38:03;17.45;;;9.85;;
29848;SDS011;16728;50.832;5.590;2022-10-31T06:41:06;17.80;;;9.70;;
29848;SDS011;16728;50.832;5.590;2022-10-31T06:44:07;19.67;;;9.88;;
29848;SDS011;16728;50.832;5.590;2022-10-31T06:47:09;18.00;;;10.55;;
29848;SDS011;16728;50.832;5.590;2022-10-31T06:50:11;21.48;;;9.75;;
29848;SDS011;16728;50.832;5.590;2022-10-31T06:53:13;17.83;;;10.50;;
29848;SDS011;16728;50.832;5.590;2022-10-31T06:56:15;20.85;;;11.05;;
29848;SDS011;16728;50.832;5.590;2022-10-31T06:59:17;24.70;;;11.32;;
29848;SDS011;16728;50.832;5.590;2022-10-31T07:02:19;24.90;;;11.73;;
29848;SDS011;16728;50.832;5.590;2022-10-31T07:05:21;21.17;;;11.40;;
29848;SDS011;16728;50.832;5.590;2022-10-31T07:08:24;20.45;;;10.90;;
29848;SDS011;16728;50.832;5.590;2022-10-31T07:11:26;18.98;;;10.02;;
29848;SDS011;16728;50.832;5.590;2022-10-31T07:14:28;20.50;;;11.00;;
29848;SDS011;16728;50.832;5.590;2022-10-31T07:17:29;22.50;;;10.25;;
29848;SDS011;16728;50.832;5.590;2022-10-31T07:20:31;19.77;;;11.40;;
29848;SDS011;16728;50.832;5.590;2022-10-31T07:23:33;18.40;;;10.75;;
29848;SDS011;16728;50.832;5.590;2022-10-31T07:26:35;18.15;;;11.73;;
29848;SDS011;16728;50.832;5.590;2022-10-31T07:29:37;18.58;;;11.02;;
29848;SDS011;16728;50.832;5.590;2022-10-31T07:32:42;23.15;;;12.93;;
29848;SDS011;16728;50.832;5.590;2022-10-31T07:35:45;23.77;;;14.50;;
29848;SDS011;16728;50.832;5.590;2022-10-31T07:38:48;28.52;;;13.82;;
29848;SDS011;16728;50.832;5.590;2022-10-31T07:41:50;29.73;;;15.02;;
29848;SDS011;16728;50.832;5.590;2022-10-31T07:44:52;28.13;;;15.82;;
29848;SDS011;16728;50.832;5.590;2022-10-31T07:47:57;28.00;;;15.70;;
29848;SDS011;16728;50.832;5.590;2022-10-31T07:51:00;25.98;;;15.73;;
29848;SDS011;16728;50.832;5.590;2022-10-31T07:54:02;25.98;;;15.95;;
29848;SDS011;16728;50.832;5.590;2022-10-31T07:57:03;28.77;;;16.52;;
29848;SDS011;16728;50.832;5.590;2022-10-31T08:00:06;34.15;;;16.48;;
29848;SDS011;16728;50.832;5.590;2022-10-31T08:03:10;27.05;;;17.35;;
29848;SDS011;16728;50.832;5.590;2022-10-31T08:06:13;25.83;;;17.95;;
29848;SDS011;16728;50.832;5.590;2022-10-31T08:09:15;24.42;;;17.33;;
29848;SDS011;16728;50.832;5.590;2022-10-31T08:12:17;20.85;;;14.57;;
29848;SDS011;16728;50.832;5.590;2022-10-31T08:15:19;27.07;;;13.60;;
29848;SDS011;16728;50.832;5.590;2022-10-31T08:18:21;25.75;;;13.82;;
29848;SDS011;16728;50.832;5.590;2022-10-31T08:21:24;22.30;;;12.90;;
29848;SDS011;16728;50.832;5.590;2022-10-31T08:24:26;22.45;;;13.27;;
29848;SDS011;16728;50.832;5.590;2022-10-31T08:27:28;17.85;;;12.13;;
29848;SDS011;16728;50.832;5.590;2022-10-31T08:30:31;20.95;;;13.20;;
29848;SDS011;16728;50.832;5.590;2022-10-31T08:33:35;24.45;;;12.70;;
29848;SDS011;16728;50.832;5.590;2022-10-31T08:36:37;21.35;;;13.25;;
29848;SDS011;16728;50.832;5.590;2022-10-31T08:39:39;21.52;;;13.95;;
29848;SDS011;16728;50.832;5.590;2022-10-31T08:42:41;19.13;;;13.23;;
29848;SDS011;16728;50.832;5.590;2022-10-31T08:45:43;23.10;;;13.35;;
29848;SDS011;16728;50.832;5.590;2022-10-31T08:48:48;23.80;;;13.60;;
29848;SDS011;16728;50.832;5.590;2022-10-31T08:51:51;20.92;;;13.90;;
29848;SDS011;16728;50.832;5.590;2022-10-31T08:54:53;24.95;;;14.63;;
29848;SDS011;16728;50.832;5.590;2022-10-31T08:57:55;28.60;;;14.95;;
29848;SDS011;16728;50.832;5.590;2022-10-31T09:00:59;26.95;;;14.90;;
29848;SDS011;16728;50.832;5.590;2022-10-31T09:07:03;26.48;;;16.13;;
29848;SDS011;16728;50.832;5.590;2022-10-31T09:10:22;28.52;;;16.45;;
29848;SDS011;16728;50.832;5.590;2022-10-31T09:13:24;26.95;;;16.73;;
29848;SDS011;16728;50.832;5.590;2022-10-31T09:16:28;33.63;;;17.67;;
29848;SDS011;16728;50.832;5.590;2022-10-31T09:19:30;33.75;;;17.48;;
29848;SDS011;16728;50.832;5.590;2022-10-31T09:22:32;29.52;;;17.00;;
29848;SDS011;16728;50.832;5.590;2022-10-31T09:25:34;23.08;;;16.65;;
29848;SDS011;16728;50.832;5.590;2022-10-31T09:28:36;27.25;;;17.35;;
29848;SDS011;16728;50.832;5.590;2022-10-31T09:31:38;31.50;;;17.15;;
29848;SDS011;16728;50.832;5.590;2022-10-31T09:34:45;25.77;;;16.75;;
29848;SDS011;16728;50.832;5.590;2022-10-31T09:37:46;31.98;;;17.38;;
29848;SDS011;16728;50.832;5.590;2022-10-31T09:54:29;29.08;;;17.40;;
29848;SDS011;16728;50.832;5.590;2022-10-31T10:00:34;29.10;;;18.13;;
29848;SDS011;16728;50.832;5.590;2022-10-31T10:03:41;28.77;;;18.10;;
29848;SDS011;16728;50.832;5.590;2022-10-31T10:06:49;36.13;;;18.25;;
29848;SDS011;16728;50.832;5.590;2022-10-31T10:09:53;29.27;;;16.90;;
29848;SDS011;16728;50.832;5.590;2022-10-31T10:16:14;33.03;;;17.38;;
29848;SDS011;16728;50.832;5.590;2022-10-31T10:19:43;26.25;;;17.17;;
29848;SDS011;16728;50.832;5.590;2022-10-31T10:23:23;27.52;;;17.20;;
29848;SDS011;16728;50.832;5.590;2022-10-31T10:26:38;29.95;;;16.83;;
29848;SDS011;16728;50.832;5.590;2022-10-31T10:29:46;28.97;;;17.13;;
29848;SDS011;16728;50.832;5.590;2022-10-31T10:34:01;35.13;;;16.60;;
29848;SDS011;16728;50.832;5.590;2022-10-31T10:36:42;23.70;;;16.45;;
29848;SDS011;16728;50.832;5.590;2022-10-31T10:39:50;28.65;;;15.73;;
29848;SDS011;16728;50.832;5.590;2022-10-31T10:49:50;28.10;;;16.10;;
29848;SDS011;16728;50.832;5.590;2022-10-31T10:59:18;28.17;;;16.00;;
29848;SDS011;16728;50.832;5.590;2022-10-31T11:02:23;28.63;;;16.17;;
29848;SDS011;16728;50.832;5.590;2022-10-31T11:08:35;26.70;;;16.05;;
29848;SDS011;16728;50.832;5.590;2022-10-31T11:11:38;25.55;;;15.13;;
29848;SDS011;16728;50.832;5.590;2022-10-31T11:14:44;24.95;;;14.77;;
29848;SDS011;16728;50.832;5.590;2022-10-31T11:17:57;24.63;;;14.93;;
29848;SDS011;16728;50.832;5.590;2022-10-31T11:21:00;25.23;;;14.23;;
29848;SDS011;16728;50.832;5.590;2022-10-31T11:27:13;24.15;;;13.90;;
29848;SDS011;16728;50.832;5.590;2022-10-31T11:30:17;25.15;;;13.15;;
29848;SDS011;16728;50.832;5.590;2022-10-31T11:36:42;20.05;;;12.57;;
29848;SDS011;16728;50.832;5.590;2022-10-31T11:39:47;19.42;;;12.30;;
29848;SDS011;16728;50.832;5.590;2022-10-31T11:43:15;27.05;;;13.23;;
29848;SDS011;16728;50.832;5.590;2022-10-31T11:46:19;20.75;;;13.27;;
29848;SDS011;16728;50.832;5.590;2022-10-31T11:56:13;27.08;;;14.82;;
29848;SDS011;16728;50.832;5.590;2022-10-31T11:59:18;27.80;;;15.65;;
29848;SDS011;16728;50.832;5.590;2022-10-31T12:02:20;27.67;;;16.02;;
29848;SDS011;16728;50.832;5.590;2022-10-31T12:05:23;24.20;;;15.97;;
29848;SDS011;16728;50.832;5.590;2022-10-31T12:08:31;26.77;;;15.20;;
29848;SDS011;16728;50.832;5.590;2022-10-31T12:25:10;25.35;;;14.63;;
29848;SDS011;16728;50.832;5.590;2022-10-31T12:28:29;29.80;;;15.88;;
29848;SDS011;16728;50.832;5.590;2022-10-31T12:35:22;27.17;;;15.18;;
29848;SDS011;16728;50.832;5.590;2022-10-31T12:44:57;27.48;;;16.30;;
29848;SDS011;16728;50.832;5.590;2022-10-31T12:48:42;27.10;;;15.75;;
29848;SDS011;16728;50.832;5.590;2022-10-31T12:58:40;26.42;;;15.20;;
29848;SDS011;16728;50.832;5.590;2022-10-31T13:01:52;29.65;;;14.98;;
29848;SDS011;16728;50.832;5.590;2022-10-31T13:08:19;26.42;;;15.23;;
29848;SDS011;16728;50.832;5.590;2022-10-31T13:11:26;27.63;;;14.38;;
29848;SDS011;16728;50.832;5.590;2022-10-31T13:14:40;32.60;;;15.82;;
29848;SDS011;16728;50.832;5.590;2022-10-31T13:17:47;27.80;;;14.70;;
29848;SDS011;16728;50.832;5.590;2022-10-31T13:20:52;25.88;;;15.15;;
29848;SDS011;16728;50.832;5.590;2022-10-31T13:23:56;27.50;;;14.85;;
29848;SDS011;16728;50.832;5.590;2022-10-31T13:27:02;26.80;;;14.82;;
29848;SDS011;16728;50.832;5.590;2022-10-31T13:30:18;28.65;;;16.38;;
29848;SDS011;16728;50.832;5.590;2022-10-31T13:36:53;24.10;;;14.35;;
29848;SDS011;16728;50.832;5.590;2022-10-31T13:47:25;23.85;;;12.40;;
29848;SDS011;16728;50.832;5.590;2022-10-31T13:50:30;24.73;;;12.07;;
29848;SDS011;16728;50.832;5.590;2022-10-31T14:00:38;12.55;;;5.22;;
29848;SDS011;16728;50.832;5.590;2022-10-31T14:03:40;14.18;;;5.45;;
29848;SDS011;16728;50.832;5.590;2022-10-31T14:07:12;11.77;;;4.45;;
29848;SDS011;16728;50.832;5.590;2022-10-31T14:13:38;11.00;;;4.18;;
29848;SDS011;16728;50.832;5.590;2022-10-31T14:16:44;11.98;;;4.38;;
29848;SDS011;16728;50.832;5.590;2022-10-31T14:19:56;9.38;;;4.15;;
29848;SDS011;16728;50.832;5.590;2022-10-31T14:26:34;7.70;;;3.83;;
29848;SDS011;16728;50.832;5.590;2022-10-31T14:32:39;12.45;;;4.03;;
29848;SDS011;16728;50.832;5.590;2022-10-31T14:38:58;14.68;;;4.05;;
29848;SDS011;16728;50.832;5.590;2022-10-31T14:49:09;15.60;;;4.38;;
29848;SDS011;16728;50.832;5.590;2022-10-31T14:52:19;7.88;;;3.75;;
29848;SDS011;16728;50.832;5.590;2022-10-31T14:55:22;9.63;;;4.27;;
29848;SDS011;16728;50.832;5.590;2022-10-31T15:01:47;9.32;;;3.80;;
29848;SDS011;16728;50.832;5.590;2022-10-31T15:05:11;13.57;;;3.67;;
29848;SDS011;16728;50.832;5.590;2022-10-31T15:11:28;13.85;;;4.45;;
29848;SDS011;16728;50.832;5.590;2022-10-31T15:14:38;10.05;;;3.85;;
29848;SDS011;16728;50.832;5.590;2022-10-31T15:17:44;7.38;;;3.75;;
29848;SDS011;16728;50.832;5.590;2022-10-31T15:20:50;8.85;;;3.97;;
29848;SDS011;16728;50.832;5.590;2022-10-31T15:23:54;12.07;;;3.83;;
29848;SDS011;16728;50.832;5.590;2022-10-31T15:26:57;10.82;;;3.67;;
29848;SDS011;16728;50.832;5.590;2022-10-31T15:30:15;10.35;;;3.65;;
29848;SDS011;16728;50.832;5.590;2022-10-31T15:33:23;10.57;;;3.70;;
29848;SDS011;16728;50.832;5.590;2022-10-31T15:36:48;6.25;;;3.47;;
29848;SDS011;16728;50.832;5.590;2022-10-31T15:39:53;9.82;;;3.75;;
29848;SDS011;16728;50.832;5.590;2022-10-31T15:45:58;8.68;;;3.85;;
29848;SDS011;16728;50.832;5.590;2022-10-31T15:49:01;14.35;;;3.92;;
29848;SDS011;16728;50.832;5.590;2022-10-31T15:52:05;16.70;;;3.97;;
29848;SDS011;16728;50.832;5.590;2022-10-31T15:55:23;13.50;;;4.30;;
29848;SDS011;16728;50.832;5.590;2022-10-31T15:58:29;10.07;;;3.92;;
29848;SDS011;16728;50.832;5.590;2022-10-31T16:01:33;13.15;;;4.32;;
29848;SDS011;16728;50.832;5.590;2022-10-31T16:04:35;8.20;;;3.97;;
29848;SDS011;16728;50.832;5.590;2022-10-31T16:07:37;11.13;;;4.15;;
29848;SDS011;16728;50.832;5.590;2022-10-31T16:10:51;9.18;;;3.70;;
29848;SDS011;16728;50.832;5.590;2022-10-31T16:14:01;5.53;;;2.85;;
29848;SDS011;16728;50.832;5.590;2022-10-31T16:20:23;10.90;;;3.90;;
29848;SDS011;16728;50.832;5.590;2022-10-31T16:23:28;10.00;;;4.20;;
29848;SDS011;16728;50.832;5.590;2022-10-31T16:26:30;8.40;;;3.67;;
29848;SDS011;16728;50.832;5.590;2022-10-31T16:29:39;10.25;;;3.97;;
29848;SDS011;16728;50.832;5.590;2022-10-31T16:32:55;11.23;;;3.67;;
29848;SDS011;16728;50.832;5.590;2022-10-31T16:36:00;11.80;;;3.50;;
29848;SDS011;16728;50.832;5.590;2022-10-31T16:39:23;8.90;;;3.90;;
29848;SDS011;16728;50.832;5.590;2022-10-31T16:42:25;11.15;;;6.45;;
29848;SDS011;16728;50.832;5.590;2022-10-31T16:45:29;11.75;;;4.40;;
29848;SDS011;16728;50.832;5.590;2022-10-31T16:48:32;14.30;;;4.07;;
29848;SDS011;16728;50.832;5.590;2022-10-31T16:51:34;14.98;;;11.35;;
29848;SDS011;16728;50.832;5.590;2022-10-31T16:54:36;30.67;;;21.10;;
29848;SDS011;16728;50.832;5.590;2022-10-31T16:57:38;23.73;;;18.35;;
29848;SDS011;16728;50.832;5.590;2022-10-31T17:00:46;16.35;;;10.18;;
29848;SDS011;16728;50.832;5.590;2022-10-31T17:03:48;16.77;;;6.85;;
29848;SDS011;16728;50.832;5.590;2022-10-31T17:06:50;13.90;;;6.60;;
29848;SDS011;16728;50.832;5.590;2022-10-31T17:09:52;10.93;;;5.55;;
29848;SDS011;16728;50.832;5.590;2022-10-31T17:12:54;12.60;;;4.97;;
29848;SDS011;16728;50.832;5.590;2022-10-31T17:15:58;10.35;;;4.72;;
29848;SDS011;16728;50.832;5.590;2022-10-31T17:19:02;16.80;;;4.72;;
29848;SDS011;16728;50.832;5.590;2022-10-31T17:22:04;10.50;;;4.43;;
29848;SDS011;16728;50.832;5.590;2022-10-31T17:25:07;11.43;;;4.47;;
29848;SDS011;16728;50.832;5.590;2022-10-31T17:28:14;13.45;;;4.18;;
29848;SDS011;16728;50.832;5.590;2022-10-31T17:31:20;7.10;;;3.70;;
29848;SDS011;16728;50.832;5.590;2022-10-31T17:34:30;8.15;;;4.00;;
29848;SDS011;16728;50.832;5.590;2022-10-31T17:37:32;10.02;;;4.05;;
29848;SDS011;16728;50.832;5.590;2022-10-31T17:40:35;8.35;;;4.30;;
29848;SDS011;16728;50.832;5.590;2022-10-31T17:43:39;8.95;;;4.60;;
29848;SDS011;16728;50.832;5.590;2022-10-31T17:46:41;10.43;;;4.47;;
29848;SDS011;16728;50.832;5.590;2022-10-31T17:49:42;10.52;;;3.83;;
29848;SDS011;16728;50.832;5.590;2022-10-31T17:52:44;7.43;;;3.58;;
29848;SDS011;16728;50.832;5.590;2022-10-31T17:55:47;15.18;;;4.45;;
29848;SDS011;16728;50.832;5.590;2022-10-31T17:58:49;7.13;;;3.90;;
29848;SDS011;16728;50.832;5.590;2022-10-31T18:01:51;7.13;;;3.60;;
29848;SDS011;16728;50.832;5.590;2022-10-31T18:04:53;7.68;;;3.67;;
29848;SDS011;16728;50.832;5.590;2022-10-31T18:07:55;8.63;;;3.78;;
29848;SDS011;16728;50.832;5.590;2022-10-31T18:11:10;8.15;;;3.60;;
29848;SDS011;16728;50.832;5.590;2022-10-31T18:14:17;11.80;;;4.20;;
29848;SDS011;16728;50.832;5.590;2022-10-31T18:17:19;9.15;;;4.07;;
29848;SDS011;16728;50.832;5.590;2022-10-31T18:20:22;9.98;;;3.90;;
29848;SDS011;16728;50.832;5.590;2022-10-31T18:23:23;7.28;;;3.20;;
29848;SDS011;16728;50.832;5.590;2022-10-31T18:26:26;8.45;;;3.60;;
29848;SDS011;16728;50.832;5.590;2022-10-31T18:29:28;8.77;;;3.45;;
29848;SDS011;16728;50.832;5.590;2022-10-31T18:32:30;5.78;;;3.50;;
29848;SDS011;16728;50.832;5.590;2022-10-31T18:35:36;13.40;;;3.90;;
29848;SDS011;16728;50.832;5.590;2022-10-31T18:38:39;9.13;;;4.10;;
29848;SDS011;16728;50.832;5.590;2022-10-31T18:41:44;9.35;;;3.80;;
29848;SDS011;16728;50.832;5.590;2022-10-31T18:44:46;8.52;;;3.83;;
29848;SDS011;16728;50.832;5.590;2022-10-31T18:47:51;9.13;;;3.92;;
29848;SDS011;16728;50.832;5.590;2022-10-31T18:50:53;8.35;;;3.72;;
29848;SDS011;16728;50.832;5.590;2022-10-31T18:53:59;7.68;;;3.28;;
29848;SDS011;16728;50.832;5.590;2022-10-31T18:57:01;9.32;;;3.50;;
29848;SDS011;16728;50.832;5.590;2022-10-31T19:00:04;10.05;;;4.03;;
29848;SDS011;16728;50.832;5.590;2022-10-31T19:03:06;11.30;;;3.97;;
29848;SDS011;16728;50.832;5.590;2022-10-31T19:06:08;11.50;;;3.97;;
29848;SDS011;16728;50.832;5.590;2022-10-31T19:09:11;6.17;;;3.60;;
29848;SDS011;16728;50.832;5.590;2022-10-31T19:12:13;8.32;;;3.97;;
29848;SDS011;16728;50.832;5.590;2022-10-31T19:15:14;8.18;;;3.90;;
29848;SDS011;16728;50.832;5.590;2022-10-31T19:18:16;6.97;;;2.97;;
29848;SDS011;16728;50.832;5.590;2022-10-31T19:21:19;9.73;;;3.63;;
29848;SDS011;16728;50.832;5.590;2022-10-31T19:24:21;9.65;;;4.07;;
29848;SDS011;16728;50.832;5.590;2022-10-31T19:27:23;9.60;;;4.65;;
29848;SDS011;16728;50.832;5.590;2022-10-31T19:30:28;10.25;;;3.55;;
29848;SDS011;16728;50.832;5.590;2022-10-31T19:33:29;10.07;;;4.15;;
29848;SDS011;16728;50.832;5.590;2022-10-31T19:36:36;11.50;;;3.60;;
29848;SDS011;16728;50.832;5.590;2022-10-31T19:39:38;15.18;;;3.70;;
29848;SDS011;16728;50.832;5.590;2022-10-31T19:42:44;17.17;;;4.47;;
29848;SDS011;16728;50.832;5.590;2022-10-31T19:45:56;10.93;;;3.70;;
29848;SDS011;16728;50.832;5.590;2022-10-31T19:48:59;7.50;;;3.47;;
29848;SDS011;16728;50.832;5.590;2022-10-31T19:52:01;11.27;;;3.75;;
29848;SDS011;16728;50.832;5.590;2022-10-31T19:55:03;6.05;;;3.30;;
29848;SDS011;16728;50.832;5.590;2022-10-31T19:58:05;14.52;;;4.78;;
29848;SDS011;16728;50.832;5.590;2022-10-31T20:01:10;10.57;;;4.15;;
29848;SDS011;16728;50.832;5.590;2022-10-31T20:04:14;11.63;;;3.88;;
29848;SDS011;16728;50.832;5.590;2022-10-31T20:07:16;9.25;;;3.90;;
29848;SDS011;16728;50.832;5.590;2022-10-31T20:10:18;9.05;;;3.78;;
29848;SDS011;16728;50.832;5.590;2022-10-31T20:13:20;8.90;;;3.95;;
29848;SDS011;16728;50.832;5.590;2022-10-31T20:16:23;10.63;;;3.70;;
29848;SDS011;16728;50.832;5.590;2022-10-31T20:22:27;8.60;;;3.75;;
29848;SDS011;16728;50.832;5.590;2022-10-31T20:25:29;13.88;;;4.32;;
29848;SDS011;16728;50.832;5.590;2022-10-31T20:28:33;8.82;;;4.05;;
29848;SDS011;16728;50.832;5.590;2022-10-31T20:31:43;6.72;;;3.70;;
29848;SDS011;16728;50.832;5.590;2022-10-31T20:34:46;11.02;;;4.05;;
29848;SDS011;16728;50.832;5.590;2022-10-31T20:37:52;12.80;;;4.57;;
29848;SDS011;16728;50.832;5.590;2022-10-31T20:41:00;7.72;;;4.20;;
29848;SDS011;16728;50.832;5.590;2022-10-31T20:44:02;11.02;;;4.22;;
29848;SDS011;16728;50.832;5.590;2022-10-31T20:47:04;9.90;;;4.20;;
29848;SDS011;16728;50.832;5.590;2022-10-31T20:50:07;11.65;;;4.28;;
29848;SDS011;16728;50.832;5.590;2022-10-31T20:53:09;12.73;;;4.72;;
29848;SDS011;16728;50.832;5.590;2022-10-31T20:56:14;12.52;;;4.50;;
29848;SDS011;16728;50.832;5.590;2022-10-31T20:59:18;9.20;;;4.40;;
29848;SDS011;16728;50.832;5.590;2022-10-31T21:02:20;12.73;;;4.55;;
29848;SDS011;16728;50.832;5.590;2022-10-31T21:05:22;13.95;;;4.85;;
29848;SDS011;16728;50.832;5.590;2022-10-31T21:08:24;12.48;;;4.82;;
29848;SDS011;16728;50.832;5.590;2022-10-31T21:11:27;10.38;;;4.22;;
29848;SDS011;16728;50.832;5.590;2022-10-31T21:14:29;12.55;;;4.38;;